createdAt,value
2023-03-26T00:00:08.699Z,23.6
2023-03-26T00:01:10.566Z,23.6
2023-03-26T00:02:12.747Z,23.6
2023-03-26T00:03:15.227Z,23.5
2023-03-26T00:04:17.051Z,23.5
2023-03-26T00:05:19.002Z,23.5
2023-03-26T00:06:21.056Z,23.5
2023-03-26T00:07:22.906Z,23.5
2023-03-26T00:08:24.758Z,23.5
2023-03-26T00:09:26.711Z,23.5
2023-03-26T00:10:28.454Z,23.5
2023-03-26T00:11:30.310Z,23.5
2023-03-26T00:12:32.055Z,23.5
2023-03-26T00:13:33.892Z,23.5
2023-03-26T00:14:35.852Z,23.5
2023-03-26T00:15:37.607Z,23.5
2023-03-26T00:16:39.563Z,23.5
2023-03-26T00:17:41.771Z,23.5
2023-03-26T00:18:43.972Z,23.5
2023-03-26T00:19:46.121Z,23.5
2023-03-26T00:20:47.984Z,23.5
2023-03-26T00:21:49.922Z,23.5
2023-03-26T00:22:51.790Z,23.5
2023-03-26T00:23:53.622Z,23.6
2023-03-26T00:24:55.573Z,23.5
2023-03-26T00:25:57.435Z,23.6
2023-03-26T00:26:59.274Z,23.5
2023-03-26T00:28:01.244Z,23.6
2023-03-26T00:29:03.208Z,23.5
2023-03-26T00:30:05.539Z,23.5
2023-03-26T00:31:07.459Z,23.6
2023-03-26T00:32:09.481Z,23.5
2023-03-26T00:33:11.580Z,23.5
2023-03-26T00:34:13.675Z,23.5
2023-03-26T00:35:15.412Z,23.5
2023-03-26T00:36:17.180Z,23.5
2023-03-26T00:37:19.117Z,23.4
2023-03-26T00:38:21.063Z,23.3
2023-03-26T00:39:22.925Z,23.5
2023-03-26T00:40:24.865Z,23.5
2023-03-26T00:41:27.054Z,23.6
2023-03-26T00:42:28.982Z,23.5
2023-03-26T00:43:30.835Z,23.6
2023-03-26T00:44:32.680Z,23.6
2023-03-26T00:45:34.634Z,23.6
2023-03-26T00:46:36.672Z,23.6
2023-03-26T00:47:38.844Z,23.6
2023-03-26T00:48:46.185Z,23.6
2023-03-26T00:49:48.011Z,23.6
2023-03-26T00:50:49.817Z,23.6
2023-03-26T00:51:51.677Z,23.6
2023-03-26T00:52:53.528Z,23.5
2023-03-26T00:53:55.368Z,23.5
2023-03-26T00:54:57.332Z,23.6
2023-03-26T00:55:59.133Z,23.6
2023-03-26T00:57:00.938Z,23.6
2023-03-26T00:58:02.988Z,23.6
2023-03-26T00:59:04.937Z,23.6
2023-03-26T01:00:06.793Z,23.5
2023-03-26T01:01:08.979Z,23.5
2023-03-26T01:02:11.114Z,23.5
2023-03-26T01:03:28.409Z,23.5
2023-03-26T01:04:32.115Z,23.5
2023-03-26T01:05:34.775Z,23.5
2023-03-26T01:06:37.153Z,23.4
2023-03-26T01:07:38.987Z,23.4
2023-03-26T01:08:40.853Z,23.4
2023-03-26T01:09:42.523Z,23.4
2023-03-26T01:10:44.632Z,23.4
2023-03-26T01:11:46.598Z,23.4
2023-03-26T01:12:48.444Z,23.4
2023-03-26T01:13:50.284Z,23.5
2023-03-26T01:14:52.346Z,23.5
2023-03-26T01:15:54.630Z,23.5
2023-03-26T01:16:56.972Z,23.5
2023-03-26T01:17:58.958Z,23.4
2023-03-26T01:19:01.177Z,23.4
2023-03-26T01:20:03.151Z,23.4
2023-03-26T01:21:05.155Z,23.4
2023-03-26T01:22:07.244Z,23.4
2023-03-26T01:23:09.082Z,23.4
2023-03-26T01:24:10.964Z,23.4
2023-03-26T01:25:12.754Z,23.4
2023-03-26T01:26:14.633Z,23.4
2023-03-26T01:27:16.593Z,23.4
2023-03-26T01:28:18.433Z,23.4
2023-03-26T01:29:20.205Z,23.4
2023-03-26T01:30:22.133Z,23.4
2023-03-26T01:31:23.986Z,23.4
2023-03-26T01:32:26.044Z,23.4
2023-03-26T01:33:28.607Z,23.4
2023-03-26T01:34:30.763Z,23.4
2023-03-26T01:35:32.824Z,23.4
2023-03-26T01:36:34.878Z,23.4
2023-03-26T01:37:36.730Z,23.4
2023-03-26T01:38:38.589Z,23.4
2023-03-26T01:39:40.419Z,23.4
2023-03-26T01:40:42.385Z,23.4
2023-03-26T01:41:44.745Z,23.4
2023-03-26T01:42:46.598Z,23.4
2023-03-26T01:43:48.548Z,23.4
2023-03-26T01:44:50.501Z,23.4
2023-03-26T01:45:52.818Z,23.4
2023-03-26T01:46:55.514Z,23.4
2023-03-26T01:47:57.611Z,23.4
2023-03-26T01:48:59.751Z,23.4
2023-03-26T01:50:01.596Z,23.3
2023-03-26T01:51:03.567Z,23.3
2023-03-26T01:52:05.390Z,23.3
2023-03-26T01:53:07.354Z,23.3
2023-03-26T01:54:09.200Z,23.3
2023-03-26T01:55:11.057Z,23.3
2023-03-26T01:56:13.006Z,23.3
2023-03-26T01:57:14.952Z,23.3
2023-03-26T01:58:16.905Z,23.3
2023-03-26T01:59:18.749Z,23.3
2023-03-26T02:00:20.599Z,23.3
2023-03-26T02:01:22.678Z,23.3
2023-03-26T02:02:25.012Z,23.3
2023-03-26T02:03:27.365Z,23.3
2023-03-26T02:04:29.438Z,23.3
2023-03-26T02:05:31.321Z,23.3
2023-03-26T02:06:33.275Z,23.3
2023-03-26T02:07:35.297Z,23.3
2023-03-26T02:08:37.148Z,23.3
2023-03-26T02:09:39.105Z,23.3
2023-03-26T02:10:40.943Z,23.3
2023-03-26T02:11:42.892Z,23.3
2023-03-26T02:12:44.747Z,23.4
2023-03-26T02:13:46.578Z,23.4
2023-03-26T02:14:48.545Z,23.4
2023-03-26T02:15:50.516Z,23.4
2023-03-26T02:16:52.361Z,23.4
2023-03-26T02:17:54.540Z,23.4
2023-03-26T02:18:56.676Z,23.3
2023-03-26T02:19:58.633Z,23.3
2023-03-26T02:21:00.476Z,23.3
2023-03-26T02:22:02.385Z,23.3
2023-03-26T02:23:04.162Z,23.3
2023-03-26T02:24:06.016Z,23.3
2023-03-26T02:25:07.869Z,23.3
2023-03-26T02:26:09.723Z,23.3
2023-03-26T02:27:11.579Z,23.3
2023-03-26T02:28:13.413Z,23.3
2023-03-26T02:29:15.372Z,23.3
2023-03-26T02:30:17.228Z,23.3
2023-03-26T02:31:19.080Z,23.3
2023-03-26T02:32:20.979Z,23.3
2023-03-26T02:33:22.986Z,23.3
2023-03-26T02:34:24.821Z,23.3
2023-03-26T02:35:26.912Z,23.3
2023-03-26T02:36:29.106Z,23.3
2023-03-26T02:37:31.528Z,23.3
2023-03-26T02:38:33.476Z,23.3
2023-03-26T02:39:35.614Z,23.3
2023-03-26T02:40:37.464Z,23.3
2023-03-26T02:41:39.315Z,23.3
2023-03-26T02:42:41.280Z,23.3
2023-03-26T02:43:43.112Z,23.3
2023-03-26T02:44:45.068Z,23.3
2023-03-26T02:45:47.073Z,23.3
2023-03-26T02:46:49.170Z,23.3
2023-03-26T02:47:50.971Z,23.3
2023-03-26T02:48:52.980Z,23.3
2023-03-26T02:49:54.924Z,23.3
2023-03-26T02:50:56.676Z,23.2
2023-03-26T02:51:58.532Z,23.3
2023-03-26T02:53:00.410Z,23.3
2023-03-26T02:54:02.236Z,23.3
2023-03-26T02:55:04.188Z,23.3
2023-03-26T02:56:06.028Z,23.3
2023-03-26T02:57:08.000Z,23.3
2023-03-26T02:58:10.042Z,23.3
2023-03-26T02:59:11.987Z,23.3
2023-03-26T03:00:13.847Z,23.2
2023-03-26T03:01:15.739Z,23.2
2023-03-26T03:02:17.761Z,23.2
2023-03-26T03:03:20.006Z,23.2
2023-03-26T03:04:21.872Z,23.2
2023-03-26T03:05:23.798Z,23.2
2023-03-26T03:06:25.655Z,23.2
2023-03-26T03:07:27.512Z,23.2
2023-03-26T03:08:29.489Z,23.2
2023-03-26T03:09:31.305Z,23.2
2023-03-26T03:10:33.266Z,23.2
2023-03-26T03:11:35.117Z,23.2
2023-03-26T03:12:36.956Z,23.2
2023-03-26T03:13:38.917Z,23.2
2023-03-26T03:14:40.775Z,23.2
2023-03-26T03:15:42.713Z,23.2
2023-03-26T03:16:44.719Z,23.2
2023-03-26T03:17:46.732Z,23.2
2023-03-26T03:18:48.681Z,23.2
2023-03-26T03:19:50.525Z,23.2
2023-03-26T03:20:52.488Z,23.2
2023-03-26T03:21:54.343Z,23.2
2023-03-26T03:22:56.185Z,23.2
2023-03-26T03:24:00.708Z,23.2
2023-03-26T03:25:02.656Z,23.2
2023-03-26T03:26:04.604Z,23.2
2023-03-26T03:27:06.419Z,23.2
2023-03-26T03:28:08.208Z,23.2
2023-03-26T03:29:10.050Z,23.2
2023-03-26T03:30:11.903Z,23.2
2023-03-26T03:31:13.915Z,23.2
2023-03-26T03:32:15.808Z,23.2
2023-03-26T03:33:17.657Z,23.2
2023-03-26T03:34:19.410Z,23.2
2023-03-26T03:35:21.282Z,23.2
2023-03-26T03:36:23.199Z,23.2
2023-03-26T03:37:25.048Z,23.2
2023-03-26T03:38:26.898Z,23.2
2023-03-26T03:39:28.771Z,23.2
2023-03-26T03:40:30.701Z,23.2
2023-03-26T03:41:32.674Z,23.2
2023-03-26T03:42:34.412Z,23.2
2023-03-26T03:43:36.252Z,23.2
2023-03-26T03:44:38.124Z,23.2
2023-03-26T03:45:39.855Z,23.2
2023-03-26T03:46:41.832Z,23.2
2023-03-26T03:47:43.993Z,23.2
2023-03-26T03:48:45.806Z,23.2
2023-03-26T03:49:47.539Z,23.2
2023-03-26T03:50:49.415Z,23.2
2023-03-26T03:51:51.269Z,23.2
2023-03-26T03:52:53.011Z,23.2
2023-03-26T03:53:55.025Z,23.2
2023-03-26T03:54:56.955Z,23.2
2023-03-26T03:55:59.016Z,23.2
2023-03-26T03:57:00.824Z,23.2
2023-03-26T03:58:02.675Z,23.2
2023-03-26T03:59:04.441Z,23.2
2023-03-26T04:00:07.213Z,23.2
2023-03-26T04:01:09.053Z,23.1
2023-03-26T04:02:11.048Z,23.1
2023-03-26T04:03:13.204Z,23.1
2023-03-26T04:04:15.537Z,23.1
2023-03-26T04:05:17.479Z,23.1
2023-03-26T04:06:19.514Z,23.1
2023-03-26T04:07:21.472Z,23.1
2023-03-26T04:08:23.731Z,23.2
2023-03-26T04:09:25.581Z,23.2
2023-03-26T04:10:27.457Z,23.2
2023-03-26T04:11:29.283Z,23.2
2023-03-26T04:12:31.234Z,23.2
2023-03-26T04:13:33.188Z,23.2
2023-03-26T04:14:35.030Z,23.2
2023-03-26T04:15:36.912Z,23.2
2023-03-26T04:16:38.732Z,23.2
2023-03-26T04:17:40.733Z,23.2
2023-03-26T04:18:42.749Z,23.2
2023-03-26T04:19:44.692Z,23.2
2023-03-26T04:20:46.918Z,23.1
2023-03-26T04:21:48.900Z,23.1
2023-03-26T04:22:50.648Z,23.1
2023-03-26T04:23:52.602Z,23.1
2023-03-26T04:24:54.612Z,23.1
2023-03-26T04:25:57.072Z,23.1
2023-03-26T04:26:59.293Z,23.1
2023-03-26T04:28:01.244Z,23.1
2023-03-26T04:29:03.091Z,23.1
2023-03-26T04:30:04.942Z,23.1
2023-03-26T04:31:06.903Z,23.1
2023-03-26T04:32:08.744Z,23.1
2023-03-26T04:33:10.600Z,23.1
2023-03-26T04:34:12.335Z,23.1
2023-03-26T04:35:14.186Z,23.1
2023-03-26T04:36:16.131Z,23.1
2023-03-26T04:37:17.885Z,23.1
2023-03-26T04:38:19.737Z,23.1
2023-03-26T04:39:21.581Z,23.1
2023-03-26T04:40:23.460Z,23.1
2023-03-26T04:41:25.320Z,23.1
2023-03-26T04:42:27.239Z,23.1
2023-03-26T04:43:29.069Z,23.1
2023-03-26T04:44:30.897Z,23.1
2023-03-26T04:45:32.684Z,23.1
2023-03-26T04:46:34.651Z,23.1
2023-03-26T04:47:36.737Z,23.1
2023-03-26T04:48:39.154Z,23.1
2023-03-26T04:49:41.006Z,23.1
2023-03-26T04:50:42.977Z,23.1
2023-03-26T04:51:44.911Z,23.1
2023-03-26T04:52:46.762Z,23.1
2023-03-26T04:53:48.626Z,23.1
2023-03-26T04:54:50.559Z,23.1
2023-03-26T04:55:53.007Z,23.1
2023-03-26T04:56:55.654Z,23.1
2023-03-26T04:57:57.764Z,23
2023-03-26T04:58:59.523Z,23
2023-03-26T05:00:01.460Z,23
2023-03-26T05:01:10.853Z,23
2023-03-26T05:02:12.931Z,23
2023-03-26T05:03:14.680Z,23
2023-03-26T05:04:16.693Z,23
2023-03-26T05:05:18.996Z,23
2023-03-26T05:06:20.853Z,23
2023-03-26T05:07:22.691Z,23
2023-03-26T05:08:24.502Z,23
2023-03-26T05:09:26.562Z,23
2023-03-26T05:10:28.474Z,23
2023-03-26T05:11:30.404Z,23
2023-03-26T05:12:32.279Z,23
2023-03-26T05:13:34.099Z,22.9
2023-03-26T05:14:36.064Z,22.9
2023-03-26T05:15:37.903Z,22.8
2023-03-26T05:16:39.901Z,22.7
2023-03-26T05:17:42.082Z,22.6
2023-03-26T05:18:44.274Z,22.5
2023-03-26T05:19:46.027Z,22.5
2023-03-26T05:20:47.782Z,22.5
2023-03-26T05:21:49.724Z,22.4
2023-03-26T05:22:51.568Z,22.4
2023-03-26T05:23:53.430Z,22.4
2023-03-26T05:24:55.281Z,22.3
2023-03-26T05:25:57.126Z,22.3
2023-03-26T05:26:59.068Z,22.4
2023-03-26T05:28:00.962Z,22.4
2023-03-26T05:29:02.777Z,22.4
2023-03-26T05:30:04.835Z,22.5
2023-03-26T05:31:06.890Z,22.5
2023-03-26T05:32:08.737Z,22.5
2023-03-26T05:33:10.825Z,22.6
2023-03-26T05:34:12.945Z,22.5
2023-03-26T05:35:14.799Z,22.6
2023-03-26T05:36:16.652Z,22.6
2023-03-26T05:37:18.502Z,22.6
2023-03-26T05:38:20.348Z,22.5
2023-03-26T05:39:22.195Z,22.6
2023-03-26T05:40:23.967Z,22.5
2023-03-26T05:41:25.801Z,22.4
2023-03-26T05:42:27.642Z,22.3
2023-03-26T05:43:29.731Z,22.4
2023-03-26T05:44:31.646Z,22.4
2023-03-26T05:45:33.500Z,22.3
2023-03-26T05:46:35.384Z,22.2
2023-03-26T05:47:37.637Z,22.1
2023-03-26T05:48:39.883Z,22.1
2023-03-26T05:49:41.826Z,22
2023-03-26T05:50:43.674Z,22
2023-03-26T05:51:45.532Z,22
2023-03-26T05:52:47.330Z,22
2023-03-26T05:53:49.229Z,21.9
2023-03-26T05:54:51.075Z,21.9
2023-03-26T05:55:52.820Z,21.9
2023-03-26T05:56:54.871Z,21.8
2023-03-26T05:57:56.835Z,21.9
2023-03-26T05:58:58.704Z,21.8
2023-03-26T06:00:00.640Z,21.8
2023-03-26T06:01:02.481Z,21.8
2023-03-26T06:02:04.328Z,21.8
2023-03-26T06:03:06.554Z,21.9
2023-03-26T06:04:09.097Z,21.9
2023-03-26T06:05:11.323Z,21.9
2023-03-26T06:06:13.169Z,21.9
2023-03-26T06:07:15.119Z,21.9
2023-03-26T06:08:16.979Z,21.9
2023-03-26T06:09:18.817Z,21.9
2023-03-26T06:10:20.678Z,21.9
2023-03-26T06:11:22.510Z,22
2023-03-26T06:12:24.625Z,21.9
2023-03-26T06:13:27.044Z,21.9
2023-03-26T06:14:28.810Z,21.8
2023-03-26T06:15:30.646Z,21.8
2023-03-26T06:16:32.716Z,21.8
2023-03-26T06:17:34.973Z,21.7
2023-03-26T06:18:36.797Z,21.7
2023-03-26T06:19:38.756Z,21.7
2023-03-26T06:20:40.706Z,21.7
2023-03-26T06:21:42.550Z,21.7
2023-03-26T06:22:44.400Z,21.6
2023-03-26T06:23:46.247Z,21.6
2023-03-26T06:24:48.206Z,21.6
2023-03-26T06:25:49.953Z,21.6
2023-03-26T06:26:51.801Z,21.5
2023-03-26T06:27:53.764Z,21.5
2023-03-26T06:28:55.612Z,21.5
2023-03-26T06:29:57.475Z,21.5
2023-03-26T06:30:59.440Z,21.5
2023-03-26T06:32:19.437Z,21.5
2023-03-26T06:33:24.822Z,21.4
2023-03-26T06:34:26.788Z,21.4
2023-03-26T06:35:28.628Z,21.4
2023-03-26T06:36:30.492Z,21.3
2023-03-26T06:37:32.429Z,21.3
2023-03-26T06:38:34.172Z,21.3
2023-03-26T06:39:36.022Z,21.3
2023-03-26T06:40:37.881Z,21.3
2023-03-26T06:41:39.730Z,21.3
2023-03-26T06:43:10.804Z,21.3
2023-03-26T06:44:12.918Z,21.2
2023-03-26T06:45:14.796Z,21.2
2023-03-26T06:46:16.747Z,21.1
2023-03-26T06:47:18.878Z,21.1
2023-03-26T06:48:20.833Z,21.1
2023-03-26T06:49:22.684Z,21.1
2023-03-26T06:50:24.818Z,21.1
2023-03-26T06:51:26.789Z,21.1
2023-03-26T06:52:28.741Z,21.1
2023-03-26T06:53:30.903Z,21.1
2023-03-26T06:54:32.853Z,21.1
2023-03-26T06:55:34.694Z,21.1
2023-03-26T06:56:36.575Z,21.1
2023-03-26T06:57:38.411Z,21
2023-03-26T06:58:40.467Z,21
2023-03-26T06:59:42.315Z,21
2023-03-26T07:00:44.297Z,21
2023-03-26T07:01:47.034Z,21
2023-03-26T07:02:49.001Z,21
2023-03-26T07:03:51.071Z,21
2023-03-26T07:04:52.998Z,21
2023-03-26T07:05:54.846Z,21
2023-03-26T07:06:56.694Z,21
2023-03-26T07:07:58.547Z,20.9
2023-03-26T07:09:00.392Z,20.9
2023-03-26T07:10:02.255Z,20.9
2023-03-26T07:11:04.106Z,20.9
2023-03-26T07:12:05.924Z,20.9
2023-03-26T07:13:07.898Z,20.9
2023-03-26T07:14:09.750Z,20.9
2023-03-26T07:15:11.606Z,20.9
2023-03-26T07:16:13.592Z,20.8
2023-03-26T07:17:15.403Z,20.8
2023-03-26T07:18:17.274Z,20.8
2023-03-26T07:19:19.108Z,20.8
2023-03-26T07:20:21.048Z,20.8
2023-03-26T07:21:22.895Z,20.8
2023-03-26T07:22:24.749Z,20.8
2023-03-26T07:23:26.697Z,20.8
2023-03-26T07:24:28.858Z,20.8
2023-03-26T07:25:31.015Z,20.8
2023-03-26T07:26:32.865Z,20.8
2023-03-26T07:27:34.730Z,20.8
2023-03-26T07:28:36.783Z,20.8
2023-03-26T07:29:38.935Z,20.7
2023-03-26T07:30:40.784Z,20.7
2023-03-26T07:31:42.918Z,20.7
2023-03-26T07:32:44.936Z,20.7
2023-03-26T07:33:46.863Z,20.7
2023-03-26T07:34:48.690Z,20.7
2023-03-26T07:35:50.687Z,20.7
2023-03-26T07:36:52.710Z,20.7
2023-03-26T07:37:54.445Z,20.7
2023-03-26T07:38:56.291Z,20.7
2023-03-26T07:39:58.151Z,20.7
2023-03-26T07:41:00.105Z,20.7
2023-03-26T07:42:01.968Z,20.7
2023-03-26T07:43:03.794Z,20.7
2023-03-26T07:44:08.423Z,20.7
2023-03-26T07:45:10.175Z,20.6
2023-03-26T07:46:12.152Z,20.6
2023-03-26T07:47:14.001Z,20.6
2023-03-26T07:48:15.917Z,20.6
2023-03-26T07:49:17.975Z,20.6
2023-03-26T07:50:19.885Z,20.6
2023-03-26T07:51:21.978Z,20.6
2023-03-26T07:52:23.833Z,20.6
2023-03-26T07:53:25.674Z,20.6
2023-03-26T07:54:27.499Z,20.6
2023-03-26T07:55:29.381Z,20.6
2023-03-26T07:56:31.271Z,20.6
2023-03-26T07:57:33.504Z,20.6
2023-03-26T07:58:35.338Z,20.6
2023-03-26T07:59:37.194Z,20.6
2023-03-26T08:00:39.033Z,20.6
2023-03-26T08:01:41.115Z,20.6
2023-03-26T08:02:43.321Z,20.6
2023-03-26T08:03:45.905Z,20.6
2023-03-26T08:04:48.650Z,20.6
2023-03-26T08:05:50.844Z,20.5
2023-03-26T08:06:52.699Z,20.6
2023-03-26T08:07:54.544Z,20.5
2023-03-26T08:08:56.501Z,20.5
2023-03-26T08:09:58.454Z,20.5
2023-03-26T08:11:00.310Z,20.5
2023-03-26T08:12:02.058Z,20.5
2023-03-26T08:13:04.080Z,20.5
2023-03-26T08:14:05.969Z,20.5
2023-03-26T08:15:07.899Z,20.5
2023-03-26T08:16:09.888Z,20.5
2023-03-26T08:17:11.820Z,20.5
2023-03-26T08:18:13.689Z,20.5
2023-03-26T08:19:15.510Z,20.5
2023-03-26T08:20:17.359Z,20.5
2023-03-26T08:21:19.183Z,20.5
2023-03-26T08:22:21.071Z,20.4
2023-03-26T08:23:23.008Z,20.4
2023-03-26T08:24:24.958Z,20.4
2023-03-26T08:25:26.818Z,20.4
2023-03-26T08:26:28.671Z,20.4
2023-03-26T08:27:30.514Z,20.4
2023-03-26T08:28:32.370Z,20.4
2023-03-26T08:29:34.224Z,20.4
2023-03-26T08:30:36.065Z,20.4
2023-03-26T08:31:38.278Z,20.4
2023-03-26T08:32:40.604Z,20.4
2023-03-26T08:33:42.762Z,20.4
2023-03-26T08:34:44.642Z,20.4
2023-03-26T08:35:46.742Z,20.4
2023-03-26T08:36:48.809Z,20.4
2023-03-26T08:37:50.646Z,20.4
2023-03-26T08:38:52.928Z,19.7
2023-03-26T08:39:55.173Z,19.5
2023-03-26T08:40:57.763Z,19.9
2023-03-26T08:41:59.693Z,20.4
2023-03-26T08:43:01.550Z,20.5
2023-03-26T08:44:03.295Z,20.4
2023-03-26T08:45:05.133Z,20.4
2023-03-26T08:46:07.132Z,20.5
2023-03-26T08:47:09.046Z,20.5
2023-03-26T08:48:10.903Z,20.4
2023-03-26T08:49:12.664Z,20.4
2023-03-26T08:50:14.506Z,20.4
2023-03-26T08:51:16.647Z,20.4
2023-03-26T08:52:18.495Z,20.5
2023-03-26T08:53:20.554Z,20.4
2023-03-26T08:54:22.466Z,20.4
2023-03-26T08:55:24.364Z,20.4
2023-03-26T08:56:26.205Z,20.4
2023-03-26T08:57:28.169Z,20.4
2023-03-26T08:58:30.005Z,20.4
2023-03-26T08:59:31.839Z,20.4
2023-03-26T09:00:33.820Z,20.4
2023-03-26T09:01:35.791Z,20.4
2023-03-26T09:02:37.838Z,20.4
2023-03-26T09:03:39.912Z,20.3
2023-03-26T09:04:41.861Z,20.3
2023-03-26T09:05:43.790Z,20.3
2023-03-26T09:06:45.634Z,20.3
2023-03-26T09:07:47.385Z,20.3
2023-03-26T09:08:54.788Z,20.3
2023-03-26T09:09:56.711Z,20.3
2023-03-26T09:10:58.657Z,20.3
2023-03-26T09:12:00.514Z,20.3
2023-03-26T09:13:02.375Z,20.3
2023-03-26T09:14:04.178Z,20.3
2023-03-26T09:15:06.057Z,20.3
2023-03-26T09:16:08.053Z,20.3
2023-03-26T09:17:10.074Z,20.3
2023-03-26T09:18:12.039Z,20.3
2023-03-26T09:19:14.077Z,20.3
2023-03-26T09:20:16.072Z,20.3
2023-03-26T09:21:17.896Z,20.3
2023-03-26T09:22:19.933Z,20.3
2023-03-26T09:23:21.788Z,20.3
2023-03-26T09:24:23.590Z,20.2
2023-03-26T09:25:25.596Z,20.2
2023-03-26T09:26:27.438Z,20.2
2023-03-26T09:27:29.294Z,20.2
2023-03-26T09:28:31.144Z,20.3
2023-03-26T09:29:33.506Z,20.2
2023-03-26T09:30:35.355Z,20.3
2023-03-26T09:31:37.374Z,20.3
2023-03-26T09:32:39.613Z,20.3
2023-03-26T09:33:41.544Z,20.3
2023-03-26T09:34:43.555Z,20.3
2023-03-26T09:35:45.573Z,20.3
2023-03-26T09:36:47.584Z,20.3
2023-03-26T09:37:58.229Z,20.2
2023-03-26T09:39:00.604Z,20.3
2023-03-26T09:40:02.586Z,20.2
2023-03-26T09:41:04.406Z,20.2
2023-03-26T09:42:06.255Z,20.2
2023-03-26T09:43:08.182Z,20.3
2023-03-26T09:44:10.064Z,20.2
2023-03-26T09:45:12.015Z,20.3
2023-03-26T09:46:13.887Z,20.3
2023-03-26T09:47:15.925Z,20.3
2023-03-26T09:48:17.865Z,20.3
2023-03-26T09:49:19.959Z,20.2
2023-03-26T09:50:22.596Z,20.3
2023-03-26T09:51:27.760Z,20.2
2023-03-26T09:52:29.692Z,20.2
2023-03-26T09:53:31.519Z,20.2
2023-03-26T09:54:33.257Z,20.2
2023-03-26T09:55:35.110Z,20.2
2023-03-26T09:56:39.747Z,20.3
2023-03-26T09:57:41.897Z,20.2
2023-03-26T09:58:43.995Z,20.2
2023-03-26T09:59:45.899Z,20.2
2023-03-26T10:00:47.916Z,20.2
2023-03-26T10:01:49.772Z,20.2
2023-03-26T10:02:51.766Z,20.1
2023-03-26T10:03:53.703Z,20.2
2023-03-26T10:04:56.211Z,20.2
2023-03-26T10:05:58.132Z,20.1
2023-03-26T10:07:00.104Z,20.1
2023-03-26T10:08:02.125Z,20.1
2023-03-26T10:09:04.085Z,20.1
2023-03-26T10:10:05.944Z,20.1
2023-03-26T10:11:07.786Z,20.1
2023-03-26T10:12:09.746Z,20.1
2023-03-26T10:13:15.313Z,20
2023-03-26T10:14:17.089Z,20
2023-03-26T10:15:18.975Z,20
2023-03-26T10:16:21.037Z,20
2023-03-26T10:17:22.979Z,20
2023-03-26T10:18:29.550Z,20
2023-03-26T10:19:32.009Z,20
2023-03-26T10:20:33.971Z,20
2023-03-26T10:21:35.801Z,20
2023-03-26T10:22:37.794Z,20
2023-03-26T10:23:39.705Z,20
2023-03-26T10:24:41.558Z,20
2023-03-26T10:25:43.304Z,20
2023-03-26T10:27:10.884Z,19.9
2023-03-26T10:28:13.010Z,19.9
2023-03-26T10:29:14.872Z,19.9
2023-03-26T10:30:16.714Z,19.9
2023-03-26T10:31:18.723Z,19.9
2023-03-26T10:32:20.701Z,19.8
2023-03-26T10:33:25.270Z,19.8
2023-03-26T10:34:29.741Z,19.8
2023-03-26T10:35:31.868Z,19.8
2023-03-26T10:36:33.863Z,19.8
2023-03-26T10:37:35.707Z,19.8
2023-03-26T10:38:37.691Z,19.8
2023-03-26T10:39:43.076Z,19.8
2023-03-26T10:40:45.458Z,19.7
2023-03-26T10:41:47.312Z,19.8
2023-03-26T10:42:49.164Z,19.8
2023-03-26T10:44:08.305Z,19.7
2023-03-26T10:45:10.981Z,19.8
2023-03-26T10:46:12.970Z,19.7
2023-03-26T10:47:14.864Z,19.8
2023-03-26T10:48:16.739Z,19.7
2023-03-26T10:49:18.697Z,19.7
2023-03-26T10:50:24.050Z,19.7
2023-03-26T10:51:25.867Z,19.7
2023-03-26T10:52:27.626Z,19.7
2023-03-26T10:53:29.461Z,19.6
2023-03-26T10:54:31.453Z,19.7
2023-03-26T10:55:33.384Z,19.7
2023-03-26T10:56:35.287Z,19.6
2023-03-26T10:57:37.284Z,19.7
2023-03-26T10:58:50.569Z,19.7
2023-03-26T10:59:52.556Z,19.6
2023-03-26T11:00:54.740Z,19.6
2023-03-26T11:01:57.146Z,19.6
2023-03-26T11:02:59.285Z,19.6
2023-03-26T11:04:01.286Z,19.6
2023-03-26T11:05:03.284Z,19.6
2023-03-26T11:06:05.206Z,19.6
2023-03-26T11:07:08.923Z,19.5
2023-03-26T11:08:10.941Z,19.5
2023-03-26T11:09:12.685Z,19.5
2023-03-26T11:10:14.656Z,19.5
2023-03-26T11:11:16.420Z,19.5
2023-03-26T11:12:28.117Z,19.5
2023-03-26T11:13:30.522Z,19.5
2023-03-26T11:14:35.621Z,19.5
2023-03-26T11:15:37.654Z,19.5
2023-03-26T11:16:39.668Z,19.4
2023-03-26T11:17:42.044Z,19.5
2023-03-26T11:18:44.083Z,19.4
2023-03-26T11:19:46.042Z,19.5
2023-03-26T11:20:47.889Z,19.4
2023-03-26T11:21:49.728Z,19.5
2023-03-26T11:22:51.596Z,19.4
2023-03-26T11:24:06.332Z,19.4
2023-03-26T11:25:08.391Z,19.4
2023-03-26T11:26:10.261Z,19.4
2023-03-26T11:27:16.990Z,19.4
2023-03-26T11:28:26.425Z,19.4
2023-03-26T11:34:37.171Z,19.3
2023-03-26T11:35:41.793Z,18.9
2023-03-26T11:36:44.005Z,18.9
2023-03-26T11:37:45.751Z,18.9
2023-03-26T11:38:47.695Z,19
2023-03-26T11:39:49.547Z,19
2023-03-26T11:40:51.373Z,19.1
2023-03-26T11:41:53.480Z,19.1
2023-03-26T11:42:55.303Z,19.1
2023-03-26T11:43:57.152Z,19.1
2023-03-26T11:44:59.207Z,19.2
2023-03-26T11:46:00.979Z,19.1
2023-03-26T11:47:03.004Z,19.2
2023-03-26T11:48:04.983Z,19.2
2023-03-26T11:49:06.922Z,19.1
2023-03-26T11:50:08.739Z,19.2
2023-03-26T11:51:10.619Z,19.1
2023-03-26T11:52:12.572Z,19.2
2023-03-26T11:53:14.416Z,19.1
2023-03-26T11:54:16.276Z,19.2
2023-03-26T11:55:18.229Z,19.2
2023-03-26T11:56:20.284Z,19.2
2023-03-26T11:57:22.176Z,19.2
2023-03-26T11:58:24.140Z,19.1
2023-03-26T11:59:25.930Z,19.1
2023-03-26T12:00:28.008Z,19.1
2023-03-26T12:01:29.869Z,19.1
2023-03-26T12:02:31.863Z,19.1
2023-03-26T12:03:34.548Z,19.1
2023-03-26T12:04:36.435Z,19.1
2023-03-26T12:05:38.349Z,19.1
2023-03-26T12:06:40.217Z,19.1
2023-03-26T12:07:42.275Z,19.1
2023-03-26T12:08:44.114Z,19
2023-03-26T12:09:45.972Z,19.1
2023-03-26T12:10:47.804Z,19.1
2023-03-26T12:11:49.653Z,19.1
2023-03-26T12:12:51.649Z,19
2023-03-26T12:13:53.459Z,19.1
2023-03-26T12:14:55.325Z,19
2023-03-26T12:15:57.274Z,19
2023-03-26T12:16:59.449Z,19
2023-03-26T12:18:01.446Z,19
2023-03-26T12:19:03.539Z,19.1
2023-03-26T12:20:05.425Z,19
2023-03-26T12:21:09.393Z,19
2023-03-26T12:22:11.333Z,19
2023-03-26T12:23:13.182Z,19
2023-03-26T12:24:15.037Z,19
2023-03-26T12:25:16.895Z,19
2023-03-26T12:26:18.725Z,19
2023-03-26T12:27:20.585Z,19
2023-03-26T12:28:22.556Z,19
2023-03-26T12:29:24.588Z,19
2023-03-26T12:30:26.435Z,19
2023-03-26T12:31:28.443Z,19
2023-03-26T12:32:46.875Z,19
2023-03-26T12:33:48.993Z,19
2023-03-26T12:34:50.946Z,18.9
2023-03-26T12:35:52.816Z,18.9
2023-03-26T12:36:54.849Z,19
2023-03-26T12:37:56.748Z,18.9
2023-03-26T12:40:12.189Z,18.9
2023-03-26T12:48:03.326Z,18.6
2023-03-26T12:49:06.782Z,18.5
2023-03-26T12:50:09.080Z,18.5
2023-03-26T12:51:11.039Z,18.5
2023-03-26T12:52:12.885Z,18.5
2023-03-26T12:53:14.826Z,18.6
2023-03-26T12:54:16.669Z,18.7
2023-03-26T12:55:18.512Z,18.6
2023-03-26T12:56:20.372Z,18.7
2023-03-26T12:57:22.351Z,18.7
2023-03-26T12:58:24.455Z,18.7
2023-03-26T12:59:26.255Z,18.7
2023-03-26T13:00:28.101Z,18.8
2023-03-26T13:01:30.120Z,18.7
2023-03-26T13:02:32.278Z,18.7
2023-03-26T13:03:34.683Z,18.7
2023-03-26T13:04:36.605Z,18.8
2023-03-26T13:05:38.453Z,18.8
2023-03-26T13:07:02.547Z,18.7
2023-03-26T13:08:04.598Z,18.7
2023-03-26T13:09:06.449Z,18.7
2023-03-26T13:10:08.341Z,18.7
2023-03-26T13:11:10.146Z,18.6
2023-03-26T13:12:11.980Z,18.7
2023-03-26T13:13:13.935Z,18.7
2023-03-26T13:14:15.789Z,18.7
2023-03-26T13:15:17.667Z,18.7
2023-03-26T13:16:19.726Z,18.7
2023-03-26T13:17:21.973Z,18.7
2023-03-26T13:18:24.107Z,18.7
2023-03-26T13:19:25.954Z,18.7
2023-03-26T13:20:27.809Z,18.7
2023-03-26T13:21:29.675Z,18.7
2023-03-26T13:22:31.594Z,18.7
2023-03-26T13:23:33.478Z,18.7
2023-03-26T13:24:35.226Z,18.7
2023-03-26T13:25:37.073Z,18.6
2023-03-26T13:26:38.912Z,18.6
2023-03-26T13:27:40.777Z,18.7
2023-03-26T13:28:42.621Z,18.7
2023-03-26T13:29:44.467Z,18.7
2023-03-26T13:30:46.347Z,18.6
2023-03-26T13:31:48.177Z,18.6
2023-03-26T13:32:50.130Z,18.6
2023-03-26T13:33:52.177Z,18.6
2023-03-26T13:34:54.019Z,18.6
2023-03-26T13:36:19.608Z,18.6
2023-03-26T13:37:26.658Z,18.6
2023-03-26T13:38:28.645Z,18.6
2023-03-26T13:39:30.505Z,18.6
2023-03-26T13:40:32.367Z,18.5
2023-03-26T13:41:34.207Z,18.5
2023-03-26T13:42:36.056Z,18.5
2023-03-26T13:43:37.816Z,18.5
2023-03-26T13:44:39.748Z,18.5
2023-03-26T13:45:41.614Z,18.5
2023-03-26T13:46:43.487Z,18.5
2023-03-26T13:47:45.647Z,18.5
2023-03-26T13:48:47.774Z,18.5
2023-03-26T13:49:49.724Z,18.5
2023-03-26T13:50:52.706Z,18.5
2023-03-26T13:51:55.074Z,18.5
2023-03-26T13:52:56.856Z,18.5
2023-03-26T13:53:58.868Z,18.5
2023-03-26T13:55:00.708Z,18.4
2023-03-26T13:56:02.767Z,18.5
2023-03-26T13:57:04.769Z,18.4
2023-03-26T13:58:06.808Z,18.4
2023-03-26T13:59:08.936Z,18.4
2023-03-26T14:00:10.931Z,18.4
2023-03-26T14:01:13.254Z,18.4
2023-03-26T14:02:15.107Z,18.4
2023-03-26T14:03:16.963Z,18.4
2023-03-26T14:04:18.996Z,18.4
2023-03-26T14:05:20.986Z,18.5
2023-03-26T14:06:23.326Z,18.4